Patricia — WDG2778 — position and weather

sailwx.info

Track history (hours):
 
Tides and Currents Weather Stations Pressure Air Temp Water Temp Dewpoint Dewpoint Depression Visibility Wind Speed Wind Dir Waves Ship Positions

Patricia

Owner: C.H Phoenix LLC, Green Cove Springs, FL. More information available from US FCC via Universal Licensing System and Coast Guard Vessel Documentation Center.

Last reported at 2018-Apr-12 16:03 UTC. Time now 2018-Apr-24 14:31 UTC.
Position N 40°41' W 074°05'.
Warning: this ship's position is 11 days out of date.

Length 28 m.

Type: Towing. MMSI: 367519170.

Date/timePositionNaut miles runAvg speedWind from/ knotsBaromVisibWave heightAir tempDewpointWater temp
2018-Apr-12 16:03N 40°41' W 074°05'0 0.0
2018-Apr-12 16:00N 40°41' W 074°05'0 0.0
2018-Apr-12 15:30N 40°41' W 074°05'0 0.0
2018-Apr-12 15:00N 40°41' W 074°05'0 0.0
2018-Apr-12 14:30N 40°41' W 074°05'0 0.0
2018-Apr-12 14:00N 40°41' W 074°05'0 0.0
2018-Apr-12 13:30N 40°41' W 074°05'0 0.0
2018-Apr-12 13:00N 40°41' W 074°05'1 2.2
2018-Apr-12 12:30N 40°40' W 074°04'4 8.3
2018-Apr-12 12:00N 40°39' W 074°08'3 5.0
2018-Apr-12 11:30N 40°41' W 074°08'0 0.1
2018-Apr-12 11:00N 40°41' W 074°08'1 2.9
2018-Apr-12 10:30N 40°40' W 074°09'2 3.2
2018-Apr-12 10:00N 40°39' W 074°07'2 4.7
2018-Apr-12 09:30N 40°40' W 074°04'1 2.8
2018-Apr-12 09:00N 40°41' W 074°05'2 4.5
2018-Apr-12 08:30N 40°39' W 074°05'3 5.1
2018-Apr-12 08:00N 40°40' W 074°08'1 1.1
2018-Apr-12 07:30N 40°41' W 074°09'2 4.4
2018-Apr-12 07:00N 40°39' W 074°09'2 4.9
2018-Apr-12 06:30N 40°39' W 074°06'2 4.3
2018-Apr-12 06:00N 40°41' W 074°04'1 1.9
2018-Apr-12 05:30N 40°41' W 074°05'0 0.0
2018-Apr-12 05:00N 40°41' W 074°05'0 0.0
2018-Apr-12 04:30N 40°41' W 074°05'0 0.0
2018-Apr-12 04:00N 40°41' W 074°05'0 0.0
2018-Apr-12 03:30N 40°41' W 074°05'0 0.0
2018-Apr-12 03:00N 40°41' W 074°05'0 0.0
2018-Apr-12 02:30N 40°41' W 074°05'0 0.0
2018-Apr-12 02:00N 40°41' W 074°05'0 0.0
2018-Apr-12 01:30N 40°41' W 074°05'0 0.0
2018-Apr-11 15:51N 40°41' W 074°05'0 0.0
2018-Apr-11 15:30N 40°41' W 074°05'  
Track history (hours):
 
Tides and Currents Weather Stations Pressure Air Temp Water Temp Dewpoint Dewpoint Depression Visibility Wind Speed Wind Dir Waves Ship Positions

Patricia

Owner: C.H Phoenix LLC, Green Cove Springs, FL. More information available from US FCC via Universal Licensing System and Coast Guard Vessel Documentation Center.

Last reported at 2018-Apr-12 16:03 UTC. Time now 2018-Apr-24 14:31 UTC.
Position N 40°41' W 074°05'.
Warning: this ship's position is 11 days out of date.

Length 28 m.

Type: Towing. MMSI: 367519170.

Date/timePositionNaut miles runAvg speedWind from/ knotsBaromVisibWave heightAir tempDewpointWater temp
2018-Apr-12 16:03N 40°41' W 074°05'0 0.0
2018-Apr-12 16:00N 40°41' W 074°05'0 0.0
2018-Apr-12 15:30N 40°41' W 074°05'0 0.0
2018-Apr-12 15:00N 40°41' W 074°05'0 0.0
2018-Apr-12 14:30N 40°41' W 074°05'0 0.0
2018-Apr-12 14:00N 40°41' W 074°05'0 0.0
2018-Apr-12 13:30N 40°41' W 074°05'0 0.0
2018-Apr-12 13:00N 40°41' W 074°05'1 2.2
2018-Apr-12 12:30N 40°40' W 074°04'4 8.3
2018-Apr-12 12:00N 40°39' W 074°08'3 5.0
2018-Apr-12 11:30N 40°41' W 074°08'0 0.1
2018-Apr-12 11:00N 40°41' W 074°08'1 2.9
2018-Apr-12 10:30N 40°40' W 074°09'2 3.2
2018-Apr-12 10:00N 40°39' W 074°07'2 4.7
2018-Apr-12 09:30N 40°40' W 074°04'1 2.8
2018-Apr-12 09:00N 40°41' W 074°05'2 4.5
2018-Apr-12 08:30N 40°39' W 074°05'3 5.1
2018-Apr-12 08:00N 40°40' W 074°08'1 1.1
2018-Apr-12 07:30N 40°41' W 074°09'2 4.4
2018-Apr-12 07:00N 40°39' W 074°09'2 4.9
2018-Apr-12 06:30N 40°39' W 074°06'2 4.3
2018-Apr-12 06:00N 40°41' W 074°04'1 1.9
2018-Apr-12 05:30N 40°41' W 074°05'0 0.0
2018-Apr-12 05:00N 40°41' W 074°05'0 0.0
2018-Apr-12 04:30N 40°41' W 074°05'0 0.0
2018-Apr-12 04:00N 40°41' W 074°05'0 0.0
2018-Apr-12 03:30N 40°41' W 074°05'0 0.0
2018-Apr-12 03:00N 40°41' W 074°05'0 0.0
2018-Apr-12 02:30N 40°41' W 074°05'0 0.0
2018-Apr-12 02:00N 40°41' W 074°05'0 0.0
2018-Apr-12 01:30N 40°41' W 074°05'0 0.0
2018-Apr-11 15:51N 40°41' W 074°05'0 0.0
2018-Apr-11 15:30N 40°41' W 074°05'  

Dump ship's entire track history